createdAt,value
2023-03-06T00:02:02.982Z,1.08
2023-03-06T00:04:29.484Z,1.08
2023-03-06T00:06:55.941Z,1.06
2023-03-06T00:09:22.489Z,1.05
2023-03-06T00:11:48.995Z,1.05
2023-03-06T00:14:16.539Z,1.02
2023-03-06T00:16:43.018Z,0.99
2023-03-06T00:19:09.575Z,0.98
2023-03-06T00:21:36.099Z,0.98
2023-03-06T00:24:02.626Z,0.97
2023-03-06T00:26:29.122Z,0.95
2023-03-06T00:28:55.638Z,0.94
2023-03-06T00:31:22.210Z,0.90
2023-03-06T00:33:49.500Z,0.85
2023-03-06T00:36:16.099Z,0.83
2023-03-06T00:38:42.652Z,0.84
2023-03-06T00:41:13.212Z,0.86
2023-03-06T00:43:39.767Z,0.85
2023-03-06T00:46:06.484Z,0.80
2023-03-06T00:48:33.911Z,0.80
2023-03-06T00:51:01.220Z,0.80
2023-03-06T00:53:27.826Z,0.79
2023-03-06T00:55:54.323Z,0.77
2023-03-06T00:58:20.813Z,0.76
2023-03-06T01:00:47.382Z,0.72
2023-03-06T01:03:13.988Z,0.70
2023-03-06T01:05:40.795Z,0.67
2023-03-06T01:08:08.827Z,0.63
2023-03-06T01:10:39.659Z,0.62
2023-03-06T01:13:06.537Z,0.55
2023-03-06T01:15:33.224Z,0.50
2023-03-06T01:17:59.783Z,0.47
2023-03-06T01:20:26.480Z,0.48
2023-03-06T01:22:54.575Z,0.46
2023-03-06T01:25:21.467Z,0.45
2023-03-06T01:27:48.060Z,0.44
2023-03-06T01:30:14.619Z,0.41
2023-03-06T01:32:41.302Z,0.38
2023-03-06T01:35:08.621Z,0.40
2023-03-06T01:37:36.344Z,0.40
2023-03-06T01:40:04.536Z,0.40
2023-03-06T01:42:32.250Z,0.37
2023-03-06T01:45:04.216Z,0.35
2023-03-06T01:47:30.975Z,0.31
2023-03-06T01:50:00.641Z,0.28
2023-03-06T01:52:31.340Z,0.28
2023-03-06T01:55:03.120Z,0.26
2023-03-06T01:57:57.991Z,0.26
2023-03-06T02:00:27.760Z,0.24
2023-03-06T02:03:05.380Z,0.21
2023-03-06T02:05:32.391Z,0.18
2023-03-06T02:07:59.068Z,0.16
2023-03-06T02:10:25.712Z,0.16
2023-03-06T02:12:53.086Z,0.18
2023-03-06T02:15:23.348Z,0.17
2023-03-06T02:17:51.405Z,0.14
2023-03-06T02:20:39.895Z,0.10
2023-03-06T02:23:14.327Z,0.10
2023-03-06T02:25:47.519Z,0.09
2023-03-06T02:28:19.932Z,0.09
2023-03-06T02:30:49.307Z,0.08
2023-03-06T02:33:18.638Z,0.08
2023-03-06T02:35:54.371Z,0.07
2023-03-06T02:38:26.070Z,0.09
2023-03-06T02:40:53.030Z,0.08
2023-03-06T02:43:28.062Z,0.06
2023-03-06T02:45:54.663Z,0.05
2023-03-06T02:48:21.650Z,0.03
2023-03-06T02:50:48.728Z,0.01
2023-03-06T02:53:17.490Z,-0.01
2023-03-06T02:55:44.036Z,0.00
2023-03-06T02:58:10.571Z,-0.01
2023-03-06T03:00:37.115Z,-0.01
2023-03-06T03:03:05.081Z,-0.03
2023-03-06T03:05:31.716Z,-0.07
2023-03-06T03:07:58.530Z,-0.09
2023-03-06T03:10:25.326Z,-0.09
2023-03-06T03:12:51.827Z,-0.10
2023-03-06T03:15:18.809Z,-0.09
2023-03-06T03:17:45.339Z,-0.08
2023-03-06T03:20:15.296Z,-0.09
2023-03-06T03:22:42.012Z,-0.13
2023-03-06T03:25:09.108Z,-0.15
2023-03-06T03:27:35.660Z,-0.15
2023-03-06T03:30:02.175Z,-0.15
2023-03-06T03:32:28.710Z,-0.16
2023-03-06T03:34:56.358Z,-0.18
2023-03-06T03:37:23.193Z,-0.19
2023-03-06T03:39:49.798Z,-0.23
2023-03-06T03:42:16.327Z,-0.25
2023-03-06T03:44:42.841Z,-0.29
2023-03-06T03:47:09.323Z,-0.33
2023-03-06T03:49:35.821Z,-0.37
2023-03-06T03:52:02.294Z,-0.39
2023-03-06T03:54:29.604Z,-0.40
2023-03-06T03:56:56.157Z,-0.42
2023-03-06T03:59:22.789Z,-0.45
2023-03-06T04:01:49.648Z,-0.52
2023-03-06T04:04:16.564Z,-0.53
2023-03-06T04:06:43.087Z,-0.51
2023-03-06T04:09:10.768Z,-0.54
2023-03-06T04:11:37.520Z,-0.54
2023-03-06T04:14:04.181Z,-0.57
2023-03-06T04:16:30.784Z,-0.61
2023-03-06T04:18:57.391Z,-0.64
2023-03-06T04:21:23.840Z,-0.65
2023-03-06T04:23:50.358Z,-0.67
2023-03-06T04:26:16.834Z,-0.69
2023-03-06T04:28:43.350Z,-0.69
2023-03-06T04:31:12.198Z,-0.72
2023-03-06T04:33:39.363Z,-0.74
2023-03-06T04:36:06.052Z,-0.73
2023-03-06T04:38:32.615Z,-0.74
2023-03-06T04:40:59.211Z,-0.73
2023-03-06T04:43:25.796Z,-0.74
2023-03-06T04:45:52.387Z,-0.75
2023-03-06T04:48:19.140Z,-0.76
2023-03-06T04:50:46.165Z,-0.78
2023-03-06T04:53:14.500Z,-0.81
2023-03-06T04:55:41.035Z,-0.81
2023-03-06T04:58:07.544Z,-0.79
2023-03-06T05:00:34.199Z,-0.79
2023-03-06T05:03:01.637Z,-0.79
2023-03-06T05:05:28.406Z,-0.82
2023-03-06T05:07:55.142Z,-0.84
2023-03-06T05:10:21.894Z,-0.83
2023-03-06T05:12:48.461Z,-0.84
2023-03-06T05:15:16.719Z,-0.83
2023-03-06T05:17:43.691Z,-0.80
2023-03-06T05:20:11.985Z,-0.74
2023-03-06T05:22:38.732Z,-0.72
2023-03-06T05:25:06.154Z,-0.68
2023-03-06T05:27:33.405Z,-0.65
2023-03-06T05:30:00.266Z,-0.63
2023-03-06T05:32:26.855Z,-0.61
2023-03-06T05:34:53.427Z,-0.62
2023-03-06T05:37:20.009Z,-0.64
2023-03-06T05:39:46.855Z,-0.67
2023-03-06T05:42:13.394Z,-0.73
2023-03-06T05:44:41.598Z,-0.72
2023-03-06T05:47:09.081Z,-0.70
2023-03-06T05:49:36.802Z,-0.65
2023-03-06T05:52:04.707Z,-0.65
2023-03-06T05:54:33.493Z,-0.65
2023-03-06T05:57:00.182Z,-0.64
2023-03-06T05:59:28.586Z,-0.64
2023-03-06T06:01:56.032Z,-0.61
2023-03-06T06:04:23.955Z,-0.59
2023-03-06T06:06:55.949Z,-0.56
2023-03-06T06:09:23.423Z,-0.49
2023-03-06T06:11:54.376Z,-0.43
2023-03-06T06:14:21.571Z,-0.41
2023-03-06T06:16:48.828Z,-0.41
2023-03-06T06:19:18.775Z,-0.37
2023-03-06T06:21:50.829Z,-0.36
2023-03-06T06:24:19.683Z,-0.27
2023-03-06T06:26:46.555Z,-0.24
2023-03-06T06:29:13.593Z,-0.20
2023-03-06T06:31:40.678Z,-0.15
2023-03-06T06:34:08.540Z,-0.12
2023-03-06T06:36:35.040Z,-0.06
2023-03-06T06:39:01.611Z,0.01
2023-03-06T06:41:54.895Z,0.10
2023-03-06T06:44:16.197Z,0.11
2023-03-06T06:49:32.190Z,0.40
2023-03-06T06:51:58.880Z,0.41
2023-03-06T06:54:25.879Z,0.45
2023-03-06T06:56:52.862Z,0.46
2023-03-06T06:59:19.751Z,0.52
2023-03-06T07:01:46.331Z,0.60
2023-03-06T07:04:13.752Z,0.69
2023-03-06T07:06:41.240Z,0.77
2023-03-06T07:09:07.741Z,0.95
2023-03-06T07:11:34.534Z,1.03
2023-03-06T07:14:01.848Z,1.12
2023-03-06T07:16:28.381Z,1.22
2023-03-06T07:18:55.004Z,1.27
2023-03-06T07:21:21.759Z,1.33
2023-03-06T07:23:48.322Z,1.47
2023-03-06T07:26:14.800Z,1.55
2023-03-06T07:28:52.039Z,1.64
2023-03-06T07:31:25.143Z,1.75
2023-03-06T07:33:54.056Z,1.86
2023-03-06T07:36:22.293Z,1.88
2023-03-06T07:38:48.860Z,1.96
2023-03-06T07:41:16.556Z,1.97
2023-03-06T07:43:44.841Z,2.04
2023-03-06T07:46:13.150Z,2.12
2023-03-06T07:48:40.300Z,2.19
2023-03-06T07:51:18.655Z,2.27
2023-03-06T07:53:46.027Z,2.40
2023-03-06T07:56:13.301Z,2.50
2023-03-06T07:58:42.464Z,2.63
2023-03-06T08:01:12.727Z,2.79
2023-03-06T08:03:39.295Z,2.93
2023-03-06T08:06:17.417Z,3.10
2023-03-06T08:08:46.017Z,3.22
2023-03-06T08:11:14.842Z,3.30
2023-03-06T08:13:41.727Z,3.42
2023-03-06T08:16:09.187Z,3.49
2023-03-06T08:18:36.128Z,3.60
2023-03-06T08:21:09.188Z,3.83
2023-03-06T08:23:36.203Z,4.08
2023-03-06T08:26:07.086Z,4.25
2023-03-06T08:28:34.185Z,4.31
2023-03-06T08:31:25.767Z,4.54
2023-03-06T08:33:53.251Z,4.46
2023-03-06T08:36:19.751Z,4.53
2023-03-06T08:38:46.439Z,4.62
2023-03-06T08:41:13.678Z,4.74
2023-03-06T08:43:40.345Z,4.93
2023-03-06T08:46:06.975Z,5.16
2023-03-06T08:48:33.568Z,5.48
2023-03-06T08:51:00.122Z,5.74
2023-03-06T08:53:40.660Z,6.03
2023-03-06T08:56:16.206Z,6.22
2023-03-06T08:58:42.676Z,6.22
2023-03-06T09:01:21.453Z,6.34
2023-03-06T09:03:48.582Z,6.50
2023-03-06T09:06:15.967Z,6.41
2023-03-06T09:08:44.362Z,6.44
2023-03-06T09:11:13.092Z,6.60
2023-03-06T09:13:39.852Z,6.47
2023-03-06T09:16:07.273Z,6.59
2023-03-06T09:18:33.766Z,6.40
2023-03-06T09:21:00.299Z,6.24
2023-03-06T09:23:26.842Z,6.37
2023-03-06T09:25:58.673Z,6.38
2023-03-06T09:28:25.785Z,6.35
2023-03-06T09:30:53.929Z,6.51
2023-03-06T09:33:20.785Z,6.54
2023-03-06T09:35:53.088Z,6.47
2023-03-06T09:38:20.856Z,6.40
2023-03-06T09:41:02.614Z,6.52
2023-03-06T09:43:39.839Z,6.59
2023-03-06T09:46:18.242Z,6.56
2023-03-06T09:49:35.554Z,6.69
2023-03-06T09:52:19.379Z,6.90
2023-03-06T09:55:09.114Z,6.82
2023-03-06T09:57:38.201Z,6.70
2023-03-06T10:00:16.614Z,6.78
2023-03-06T10:02:53.491Z,7.19
2023-03-06T10:05:27.274Z,7.68
2023-03-06T10:08:03.405Z,8.06
2023-03-06T10:10:57.522Z,8.12
2023-03-06T10:13:36.649Z,8.06
2023-03-06T10:16:33.224Z,8.63
2023-03-06T10:19:03.172Z,8.65
2023-03-06T10:22:20.333Z,8.41
2023-03-06T10:24:54.026Z,8.01
2023-03-06T10:27:38.558Z,7.65
2023-03-06T10:30:27.948Z,7.57
2023-03-06T10:33:06.139Z,7.59
2023-03-06T10:35:45.680Z,7.32
2023-03-06T10:38:30.742Z,7.28
2023-03-06T10:41:07.302Z,7.59
2023-03-06T10:43:36.502Z,8.09
2023-03-06T10:46:05.042Z,8.39
2023-03-06T10:48:35.951Z,8.43
2023-03-06T10:51:21.719Z,8.92
2023-03-06T10:54:02.898Z,8.86
2023-03-06T10:56:31.079Z,8.46
2023-03-06T10:59:17.765Z,8.19
2023-03-06T11:01:49.827Z,8.52
2023-03-06T11:04:28.845Z,8.81
2023-03-06T11:07:16.165Z,8.43
2023-03-06T11:10:00.986Z,8.02
2023-03-06T11:12:35.367Z,7.91
2023-03-06T11:15:14.244Z,8.11
2023-03-06T11:18:09.901Z,8.26
2023-03-06T11:20:52.431Z,8.10
2023-03-06T11:23:29.314Z,8.09
2023-03-06T11:26:01.195Z,8.48
2023-03-06T11:28:35.043Z,9.15
2023-03-06T11:31:11.935Z,8.72
2023-03-06T11:33:46.445Z,9.04
2023-03-06T11:36:23.134Z,8.84
2023-03-06T11:38:54.307Z,8.78
2023-03-06T11:41:32.894Z,8.45
2023-03-06T11:44:15.343Z,8.61
2023-03-06T11:46:48.686Z,8.78
2023-03-06T11:49:28.982Z,8.75
2023-03-06T11:51:59.325Z,8.72
2023-03-06T11:54:26.583Z,9.52
2023-03-06T11:57:06.633Z,11.02
2023-03-06T11:59:44.909Z,11.03
2023-03-06T12:02:39.641Z,11.10
2023-03-06T12:05:24.568Z,10.58
2023-03-06T12:08:03.182Z,10.52
2023-03-06T12:10:41.221Z,10.40
2023-03-06T12:13:35.332Z,10.39
2023-03-06T12:16:31.693Z,10.89
2023-03-06T12:19:17.209Z,10.67
2023-03-06T12:21:47.237Z,10.00
2023-03-06T12:24:32.435Z,9.43
2023-03-06T12:27:13.155Z,9.11
2023-03-06T12:30:04.166Z,9.04
2023-03-06T12:32:38.051Z,9.08
2023-03-06T12:35:16.698Z,8.89
2023-03-06T12:38:14.723Z,8.62
2023-03-06T12:41:16.832Z,8.44
2023-03-06T12:44:05.504Z,8.42
2023-03-06T12:46:38.863Z,8.10
2023-03-06T12:49:09.770Z,7.77
2023-03-06T12:51:39.851Z,7.74
2023-03-06T12:54:07.169Z,7.63
2023-03-06T12:56:34.704Z,7.46
2023-03-06T12:59:04.896Z,7.36
2023-03-06T13:01:37.172Z,7.19
2023-03-06T13:04:48.067Z,7.04
2023-03-06T13:07:27.922Z,6.79
2023-03-06T13:10:09.759Z,6.63
2023-03-06T13:12:47.389Z,6.42
2023-03-06T13:15:37.185Z,6.36
2023-03-06T13:18:22.089Z,6.25
2023-03-06T13:20:49.336Z,6.04
2023-03-06T13:23:37.388Z,5.95
2023-03-06T13:26:24.975Z,5.87
2023-03-06T13:28:57.807Z,5.77
2023-03-06T13:31:33.186Z,5.63
2023-03-06T13:34:00.847Z,5.54
2023-03-06T13:36:38.289Z,5.55
2023-03-06T13:39:10.220Z,5.56
2023-03-06T13:41:44.261Z,5.51
2023-03-06T13:44:40.323Z,5.47
2023-03-06T13:47:25.843Z,5.44
2023-03-06T13:49:52.401Z,5.47
2023-03-06T13:52:25.182Z,5.45
2023-03-06T13:55:12.994Z,5.43
2023-03-06T13:58:21.191Z,5.35
2023-03-06T14:01:11.948Z,5.47
2023-03-06T14:04:25.121Z,5.37
2023-03-06T14:07:06.637Z,5.36
2023-03-06T14:09:48.591Z,5.33
2023-03-06T14:12:24.433Z,5.27
2023-03-06T14:14:56.797Z,5.20
2023-03-06T14:17:40.425Z,5.25
2023-03-06T14:20:19.746Z,5.27
2023-03-06T14:22:46.364Z,5.26
2023-03-06T14:25:12.895Z,5.31
2023-03-06T14:28:05.681Z,5.25
2023-03-06T14:30:49.639Z,5.27
2023-03-06T14:33:44.577Z,5.22
2023-03-06T14:36:15.658Z,5.13
2023-03-06T14:38:50.219Z,5.04
2023-03-06T14:41:28.783Z,4.91
2023-03-06T14:44:30.606Z,4.76
2023-03-06T14:47:26.937Z,4.73
2023-03-06T14:50:23.257Z,4.71
2023-03-06T14:52:55.262Z,4.74
2023-03-06T14:55:24.574Z,4.74
2023-03-06T14:58:01.643Z,4.74
2023-03-06T15:00:35.827Z,4.76
2023-03-06T15:03:07.580Z,4.69
2023-03-06T15:05:34.732Z,4.65
2023-03-06T15:08:04.571Z,4.65
2023-03-06T15:10:34.184Z,4.67
2023-03-06T15:13:20.008Z,4.65
2023-03-06T15:16:01.185Z,4.65
2023-03-06T15:18:29.674Z,4.61
2023-03-06T15:21:07.867Z,4.49
2023-03-06T15:23:36.056Z,4.48
2023-03-06T15:26:22.271Z,4.44
2023-03-06T15:29:08.319Z,4.43
2023-03-06T15:31:38.264Z,4.45
2023-03-06T15:34:07.829Z,4.39
2023-03-06T15:36:37.488Z,4.30
2023-03-06T15:39:30.192Z,4.24
2023-03-06T15:42:05.016Z,4.22
2023-03-06T15:44:32.846Z,4.18
2023-03-06T15:47:08.500Z,4.18
2023-03-06T15:49:38.231Z,4.14
2023-03-06T15:52:06.494Z,4.14
2023-03-06T15:54:33.369Z,4.12
2023-03-06T15:57:00.444Z,4.08
2023-03-06T15:59:33.086Z,4.04
2023-03-06T16:02:11.036Z,4.05
2023-03-06T16:04:37.646Z,3.98
2023-03-06T16:07:04.180Z,3.94
2023-03-06T16:09:30.697Z,3.91
2023-03-06T16:11:57.294Z,3.90
2023-03-06T16:14:24.033Z,3.92
2023-03-06T16:16:52.355Z,3.86
2023-03-06T16:19:28.699Z,3.82
2023-03-06T16:21:56.484Z,3.80
2023-03-06T16:24:23.375Z,3.77
2023-03-06T16:26:51.519Z,3.76
2023-03-06T16:29:20.710Z,3.74
2023-03-06T16:31:47.613Z,3.70
2023-03-06T16:34:15.301Z,3.69
2023-03-06T16:36:41.965Z,3.66
2023-03-06T16:39:20.088Z,3.67
2023-03-06T16:41:47.170Z,3.64
2023-03-06T16:44:13.759Z,3.61
2023-03-06T16:46:45.251Z,3.56
2023-03-06T16:49:18.665Z,3.52
2023-03-06T16:51:45.422Z,3.47
2023-03-06T16:54:13.167Z,3.44
2023-03-06T16:56:39.822Z,3.41
2023-03-06T16:59:06.603Z,3.39
2023-03-06T17:01:33.233Z,3.36
2023-03-06T17:03:59.942Z,3.32
2023-03-06T17:06:26.514Z,3.30
2023-03-06T17:08:53.032Z,3.29
2023-03-06T17:11:20.453Z,3.27
2023-03-06T17:13:47.905Z,3.27
2023-03-06T17:16:18.456Z,3.28
2023-03-06T17:18:45.999Z,3.22
2023-03-06T17:21:15.739Z,3.17
2023-03-06T17:23:42.702Z,3.20
2023-03-06T17:26:15.393Z,3.16
2023-03-06T17:28:42.643Z,3.13
2023-03-06T17:31:18.098Z,3.11
2023-03-06T17:33:44.900Z,3.09
2023-03-06T17:36:12.620Z,3.08
2023-03-06T17:38:39.131Z,3.06
2023-03-06T17:41:07.759Z,3.05
2023-03-06T17:43:34.297Z,3.05
2023-03-06T17:46:09.390Z,3.09
2023-03-06T17:48:36.851Z,3.04
2023-03-06T17:51:04.103Z,3.00
2023-03-06T17:53:30.684Z,3.02
2023-03-06T17:55:58.206Z,2.97
2023-03-06T17:58:25.671Z,2.95
2023-03-06T18:00:52.546Z,2.93
2023-03-06T18:03:19.182Z,2.92
2023-03-06T18:05:45.747Z,2.92
2023-03-06T18:08:12.411Z,2.97
2023-03-06T18:10:43.464Z,2.94
2023-03-06T18:13:10.256Z,2.93
2023-03-06T18:15:40.776Z,2.91
2023-03-06T18:18:08.170Z,2.94
2023-03-06T18:20:39.959Z,2.96
2023-03-06T18:23:06.487Z,2.90
2023-03-06T18:25:33.172Z,2.87
2023-03-06T18:27:59.728Z,2.82
2023-03-06T18:30:26.399Z,2.76
2023-03-06T18:32:53.676Z,2.71
2023-03-06T18:35:20.650Z,2.67
2023-03-06T18:37:47.174Z,2.63
2023-03-06T18:40:14.213Z,2.61
2023-03-06T18:42:40.784Z,2.59
2023-03-06T18:45:07.945Z,2.59
2023-03-06T18:47:34.517Z,2.57
2023-03-06T18:50:02.717Z,2.54
2023-03-06T18:52:29.246Z,2.52
2023-03-06T18:54:55.766Z,2.50
2023-03-06T18:57:22.310Z,2.48
2023-03-06T18:59:49.060Z,2.46
2023-03-06T19:02:15.627Z,2.45
2023-03-06T19:04:42.183Z,2.43
2023-03-06T19:07:08.712Z,2.41
2023-03-06T19:09:35.248Z,2.39
2023-03-06T19:12:03.487Z,2.38
2023-03-06T19:14:30.337Z,2.36
2023-03-06T19:16:57.032Z,2.35
2023-03-06T19:19:26.326Z,2.31
2023-03-06T19:21:53.676Z,2.26
2023-03-06T19:24:20.228Z,2.19
2023-03-06T19:26:46.886Z,2.15
2023-03-06T19:29:13.384Z,2.11
2023-03-06T19:31:40.022Z,2.07
2023-03-06T19:34:06.532Z,2.03
2023-03-06T19:36:34.283Z,2.01
2023-03-06T19:39:03.638Z,1.98
2023-03-06T19:41:30.589Z,2.02
2023-03-06T19:43:59.554Z,2.00
2023-03-06T19:46:27.247Z,2.00
2023-03-06T19:49:09.923Z,2.03
2023-03-06T19:51:37.110Z,2.02
2023-03-06T19:54:03.865Z,2.03
2023-03-06T19:56:31.915Z,2.03
2023-03-06T19:58:58.505Z,2.01
2023-03-06T20:01:27.216Z,2.02
2023-03-06T20:03:58.565Z,2.01
2023-03-06T20:06:31.133Z,1.98
2023-03-06T20:08:57.679Z,1.94
2023-03-06T20:11:26.821Z,1.94
2023-03-06T20:13:53.486Z,1.93
2023-03-06T20:16:20.374Z,1.91
2023-03-06T20:18:46.900Z,1.91
2023-03-06T20:21:14.223Z,1.91
2023-03-06T20:23:40.986Z,1.91
2023-03-06T20:26:10.130Z,1.89
2023-03-06T20:28:38.685Z,1.89
2023-03-06T20:31:18.102Z,1.91
2023-03-06T20:33:47.761Z,1.90
2023-03-06T20:36:16.910Z,1.91
2023-03-06T20:38:44.377Z,1.91
2023-03-06T20:41:19.798Z,1.90
2023-03-06T20:43:46.411Z,1.89
2023-03-06T20:46:14.004Z,1.90
2023-03-06T20:48:41.595Z,1.90
2023-03-06T20:51:17.393Z,1.90
2023-03-06T20:53:43.967Z,1.88
2023-03-06T20:56:16.373Z,1.86
2023-03-06T20:58:43.372Z,1.88
2023-03-06T21:01:18.094Z,1.86
2023-03-06T21:03:44.727Z,1.84
2023-03-06T21:06:11.216Z,1.82
2023-03-06T21:08:37.721Z,1.80
2023-03-06T21:11:04.330Z,1.82
2023-03-06T21:13:30.824Z,1.81
2023-03-06T21:15:57.365Z,1.84
2023-03-06T21:18:24.453Z,1.85
2023-03-06T21:20:51.053Z,1.83
2023-03-06T21:23:17.562Z,1.82
2023-03-06T21:25:48.851Z,1.78
2023-03-06T21:28:16.017Z,1.72
2023-03-06T21:30:43.236Z,1.65
2023-03-06T21:33:12.705Z,1.63
2023-03-06T21:35:41.174Z,1.60
2023-03-06T21:38:08.678Z,1.60
2023-03-06T21:40:35.370Z,1.58
2023-03-06T21:43:01.911Z,1.56
2023-03-06T21:45:30.355Z,1.58
2023-03-06T21:47:57.944Z,1.59
2023-03-06T21:50:25.033Z,1.59
2023-03-06T21:52:52.184Z,1.57
2023-03-06T21:55:19.397Z,1.57
2023-03-06T21:57:53.031Z,1.59
2023-03-06T22:00:20.639Z,1.58
2023-03-06T22:02:47.220Z,1.57
2023-03-06T22:05:13.860Z,1.57
2023-03-06T22:07:40.615Z,1.58
2023-03-06T22:10:09.372Z,1.58
2023-03-06T22:12:36.525Z,1.60
2023-03-06T22:15:03.146Z,1.56
2023-03-06T22:17:30.998Z,1.57
2023-03-06T22:19:57.781Z,1.56
2023-03-06T22:22:24.907Z,1.60
2023-03-06T22:24:51.451Z,1.61
2023-03-06T22:27:18.050Z,1.61
2023-03-06T22:29:45.639Z,1.59
2023-03-06T22:32:12.350Z,1.61
2023-03-06T22:34:39.001Z,1.61
2023-03-06T22:37:05.549Z,1.63
2023-03-06T22:39:32.195Z,1.62
2023-03-06T22:41:58.756Z,1.61
2023-03-06T22:44:25.242Z,1.61
2023-03-06T22:46:51.872Z,1.63
2023-03-06T22:49:19.072Z,1.62
2023-03-06T22:51:45.577Z,1.62
2023-03-06T22:54:12.129Z,1.61
2023-03-06T22:56:38.716Z,1.60
2023-03-06T22:59:05.340Z,1.63
2023-03-06T23:01:33.933Z,1.67
2023-03-06T23:04:03.541Z,1.69
2023-03-06T23:06:43.180Z,1.68
2023-03-06T23:09:20.530Z,1.72
2023-03-06T23:11:47.802Z,1.70
2023-03-06T23:14:15.655Z,1.71
2023-03-06T23:16:42.209Z,1.69
2023-03-06T23:19:08.908Z,1.70
2023-03-06T23:21:35.645Z,1.68
2023-03-06T23:24:02.161Z,1.64
2023-03-06T23:26:31.221Z,1.61
2023-03-06T23:28:58.019Z,1.59
2023-03-06T23:31:29.702Z,1.53
2023-03-06T23:34:02.010Z,1.49
2023-03-06T23:36:29.668Z,1.47
2023-03-06T23:38:56.701Z,1.45
2023-03-06T23:41:23.733Z,1.44
2023-03-06T23:43:52.412Z,1.43
2023-03-06T23:46:20.718Z,1.40
2023-03-06T23:48:47.283Z,1.38
2023-03-06T23:51:16.628Z,1.38
2023-03-06T23:53:44.557Z,1.36
2023-03-06T23:56:11.359Z,1.35
2023-03-06T23:58:38.737Z,1.33
